createdAt,value
2022-12-11T00:01:11.949Z,13.13
2022-12-11T00:03:40.209Z,12.67
2022-12-11T00:06:09.718Z,13.30
2022-12-11T00:08:39.583Z,13.10
2022-12-11T00:11:09.798Z,13.27
2022-12-11T00:13:37.892Z,13.10
2022-12-11T00:16:06.735Z,12.93
2022-12-11T00:18:35.056Z,11.93
2022-12-11T00:21:03.624Z,11.70
2022-12-11T00:23:31.845Z,12.77
2022-12-11T00:26:01.324Z,11.30
2022-12-11T00:28:29.388Z,11.60
2022-12-11T00:30:57.456Z,11.33
2022-12-11T00:33:28.228Z,11.70
2022-12-11T00:35:56.299Z,10.30
2022-12-11T00:38:24.367Z,11.43
2022-12-11T00:40:52.542Z,12.53
2022-12-11T00:43:21.997Z,11.37
2022-12-11T00:45:50.145Z,12.03
2022-12-11T00:48:18.431Z,12.17
2022-12-11T00:50:47.330Z,11.93
2022-12-11T00:53:15.506Z,11.73
2022-12-11T00:55:44.481Z,12.37
2022-12-11T00:58:13.496Z,12.53
2022-12-11T01:00:44.170Z,13.17
2022-12-11T01:03:14.346Z,12.63
2022-12-11T01:05:42.824Z,12.37
2022-12-11T01:08:10.966Z,11.70
2022-12-11T01:10:38.133Z,12.63
2022-12-11T01:13:07.839Z,12.43
2022-12-11T01:15:42.125Z,12.53
2022-12-11T01:18:12.805Z,12.40
2022-12-11T01:20:43.569Z,13.57
2022-12-11T01:23:13.996Z,12.77
2022-12-11T01:25:42.471Z,12.63
2022-12-11T01:28:11.266Z,12.37
2022-12-11T01:30:41.770Z,12.53
2022-12-11T01:33:11.647Z,12.37
2022-12-11T01:35:41.186Z,12.43
2022-12-11T01:38:10.613Z,12.73
2022-12-11T01:40:38.961Z,13.77
2022-12-11T01:43:07.034Z,14.90
2022-12-11T01:45:44.567Z,12.67
2022-12-11T01:48:17.128Z,13.30
2022-12-11T01:50:49.963Z,14.63
2022-12-11T01:53:22.200Z,14.37
2022-12-11T01:55:54.409Z,13.20
2022-12-11T01:58:27.435Z,12.63
2022-12-11T02:00:56.786Z,10.90
2022-12-11T02:03:26.489Z,12.83
2022-12-11T02:05:54.575Z,14.10
2022-12-11T02:08:23.015Z,12.60
2022-12-11T02:11:04.172Z,12.10
2022-12-11T02:13:40.918Z,13.17
2022-12-11T02:16:18.528Z,12.10
2022-12-11T02:18:54.593Z,12.00
2022-12-11T02:21:27.044Z,13.10
2022-12-11T02:24:15.251Z,14.37
2022-12-11T02:27:02.780Z,20.97
2022-12-11T02:29:37.977Z,13.83
2022-12-11T02:32:12.068Z,13.50
2022-12-11T02:34:45.872Z,12.17
2022-12-11T02:37:17.721Z,13.13
2022-12-11T02:39:47.734Z,13.20
2022-12-11T02:42:17.301Z,12.80
2022-12-11T02:44:49.811Z,12.00
2022-12-11T02:47:19.286Z,12.13
2022-12-11T02:49:50.605Z,12.17
2022-12-11T02:52:21.870Z,12.13
2022-12-11T02:54:51.913Z,12.57
2022-12-11T02:57:25.275Z,12.63
2022-12-11T02:59:55.018Z,12.57
2022-12-11T03:02:23.279Z,12.27
2022-12-11T03:04:51.606Z,13.87
2022-12-11T03:07:24.490Z,12.00
2022-12-11T03:09:53.382Z,12.40
2022-12-11T03:12:29.014Z,12.30
2022-12-11T03:15:01.355Z,12.90
2022-12-11T03:17:34.022Z,13.07
2022-12-11T03:20:07.858Z,11.83
2022-12-11T03:22:42.040Z,13.03
2022-12-11T03:25:14.872Z,13.40
2022-12-11T03:27:49.231Z,11.93
2022-12-11T03:30:20.669Z,13.03
2022-12-11T03:32:52.761Z,13.63
2022-12-11T03:35:24.249Z,12.80
2022-12-11T03:37:54.348Z,12.43
2022-12-11T03:40:24.039Z,13.47
2022-12-11T03:42:54.994Z,12.37
2022-12-11T03:45:26.479Z,12.87
2022-12-11T03:47:57.584Z,13.10
2022-12-11T03:50:29.515Z,12.33
2022-12-11T03:52:59.641Z,12.30
2022-12-11T03:55:29.184Z,12.07
2022-12-11T03:57:57.393Z,13.17
2022-12-11T04:00:26.948Z,13.03
2022-12-11T04:03:14.107Z,13.10
2022-12-11T04:05:43.125Z,13.20
2022-12-11T04:08:11.611Z,13.47
2022-12-11T04:10:39.885Z,11.60
2022-12-11T04:13:08.368Z,12.33
2022-12-11T04:15:37.434Z,14.57
2022-12-11T04:18:23.460Z,12.00
2022-12-11T04:21:11.891Z,12.83
2022-12-11T04:23:57.434Z,12.47
2022-12-11T04:26:25.768Z,11.13
2022-12-11T04:28:53.900Z,13.50
2022-12-11T04:31:24.133Z,12.70
2022-12-11T04:33:53.169Z,11.67
2022-12-11T04:36:21.296Z,12.57
2022-12-11T04:38:49.381Z,11.97
2022-12-11T04:41:18.121Z,12.43
2022-12-11T04:43:46.300Z,12.73
2022-12-11T04:46:17.715Z,12.50
2022-12-11T04:48:52.434Z,12.53
2022-12-11T04:51:24.096Z,11.67
2022-12-11T04:53:52.282Z,12.57
2022-12-11T04:56:20.689Z,11.87
2022-12-11T04:58:49.565Z,12.97
2022-12-11T05:01:19.516Z,14.07
2022-12-11T05:03:49.592Z,15.00
2022-12-11T05:06:18.146Z,13.70
2022-12-11T05:08:46.351Z,13.07
2022-12-11T05:11:15.895Z,12.23
2022-12-11T05:13:44.804Z,12.50
2022-12-11T05:16:15.529Z,12.87
2022-12-11T05:18:44.010Z,13.23
2022-12-11T05:21:15.340Z,11.90
2022-12-11T05:23:43.851Z,14.00
2022-12-11T05:26:15.291Z,12.20
2022-12-11T05:28:43.584Z,13.20
2022-12-11T05:31:14.507Z,13.37
2022-12-11T05:33:42.969Z,13.00
2022-12-11T05:36:17.526Z,11.50
2022-12-11T05:38:45.812Z,13.47
2022-12-11T05:41:16.589Z,13.50
2022-12-11T05:43:45.223Z,13.03
2022-12-11T05:46:15.386Z,12.57
2022-12-11T05:48:44.812Z,13.67
2022-12-11T05:51:13.770Z,12.60
2022-12-11T05:53:44.076Z,12.43
2022-12-11T05:56:14.821Z,13.70
2022-12-11T05:58:44.339Z,14.63
2022-12-11T06:01:14.620Z,13.00
2022-12-11T06:03:42.683Z,13.00
2022-12-11T06:06:11.332Z,12.73
2022-12-11T06:08:39.600Z,13.47
2022-12-11T06:11:09.112Z,12.67
2022-12-11T06:13:37.491Z,13.17
2022-12-11T06:16:07.514Z,13.37
2022-12-11T06:18:37.816Z,13.03
2022-12-11T06:21:16.822Z,13.50
2022-12-11T06:23:45.541Z,13.43
2022-12-11T06:26:16.611Z,12.70
2022-12-11T06:28:45.239Z,12.53
2022-12-11T06:31:14.050Z,11.53
2022-12-11T06:33:44.354Z,12.50
2022-12-11T06:36:15.376Z,11.47
2022-12-11T06:38:43.937Z,11.70
2022-12-11T06:41:12.421Z,11.03
2022-12-11T06:43:42.957Z,11.43
2022-12-11T06:46:13.019Z,12.40
2022-12-11T06:48:42.427Z,12.30
2022-12-11T06:51:13.473Z,12.23
2022-12-11T06:53:41.900Z,12.33
2022-12-11T06:56:12.792Z,12.13
2022-12-11T06:58:43.866Z,11.60
2022-12-11T07:01:17.037Z,12.73
2022-12-11T07:03:45.740Z,11.77
2022-12-11T07:06:14.957Z,10.87
2022-12-11T07:08:43.539Z,10.60
2022-12-11T07:11:14.054Z,10.17
2022-12-11T07:13:43.956Z,9.90
2022-12-11T07:16:13.863Z,9.17
2022-12-11T07:18:43.493Z,10.20
2022-12-11T07:21:14.238Z,10.67
2022-12-11T07:23:42.732Z,9.70
2022-12-11T07:26:13.277Z,9.50
2022-12-11T07:28:43.456Z,9.83
2022-12-11T07:31:14.286Z,9.80
2022-12-11T07:33:43.381Z,9.77
2022-12-11T07:36:13.332Z,9.13
2022-12-11T07:38:41.673Z,10.00
2022-12-11T07:41:13.669Z,9.63
2022-12-11T07:43:43.787Z,9.57
2022-12-11T07:46:14.298Z,9.50
2022-12-11T07:48:43.809Z,8.70
2022-12-11T07:51:14.894Z,9.00
2022-12-11T07:53:45.168Z,9.97
2022-12-11T07:56:13.553Z,8.87
2022-12-11T07:58:43.281Z,10.00
2022-12-11T08:01:13.774Z,9.33
2022-12-11T08:03:42.393Z,10.00
2022-12-11T08:06:11.267Z,9.83
2022-12-11T08:08:39.770Z,10.07
2022-12-11T08:11:09.419Z,9.63
2022-12-11T08:13:38.089Z,9.30
2022-12-11T08:16:09.226Z,9.50
2022-12-11T08:18:38.708Z,9.87
2022-12-11T08:21:07.553Z,8.53
2022-12-11T08:23:36.060Z,8.87
2022-12-11T08:26:05.043Z,9.20
2022-12-11T08:28:33.192Z,9.27
2022-12-11T08:31:01.808Z,9.33
2022-12-11T08:33:31.326Z,9.43
2022-12-11T08:35:59.653Z,8.37
2022-12-11T08:38:27.735Z,9.40
2022-12-11T08:40:55.980Z,8.90
2022-12-11T08:43:24.297Z,8.97
2022-12-11T08:45:52.561Z,8.40
2022-12-11T08:48:20.696Z,9.20
2022-12-11T08:50:50.132Z,9.90
2022-12-11T08:53:18.238Z,9.03
2022-12-11T08:55:46.370Z,9.13
2022-12-11T08:58:14.520Z,9.50
2022-12-11T09:00:42.642Z,9.70
2022-12-11T09:03:12.901Z,9.83
2022-12-11T09:05:41.295Z,9.33
2022-12-11T09:08:10.789Z,8.93
2022-12-11T09:10:39.001Z,10.13
2022-12-11T09:13:07.062Z,9.23
2022-12-11T09:15:36.093Z,9.33
2022-12-11T09:18:04.330Z,10.57
2022-12-11T09:20:32.417Z,10.00
2022-12-11T09:23:00.468Z,9.80
2022-12-11T09:25:30.000Z,10.13
2022-12-11T09:27:58.305Z,9.57
2022-12-11T09:30:26.406Z,10.63
2022-12-11T09:32:54.529Z,10.47
2022-12-11T09:35:22.675Z,10.00
2022-12-11T09:37:50.765Z,10.47
2022-12-11T09:40:19.032Z,10.93
2022-12-11T09:42:59.587Z,10.33
2022-12-11T09:45:27.659Z,10.13
2022-12-11T09:47:57.357Z,9.97
2022-12-11T09:50:27.686Z,10.43
2022-12-11T09:53:06.456Z,9.33
2022-12-11T09:55:44.168Z,11.07
2022-12-11T09:58:24.186Z,10.17
2022-12-11T10:00:58.994Z,10.33
2022-12-11T10:03:52.125Z,10.07
2022-12-11T10:06:29.294Z,10.40
2022-12-11T10:09:08.917Z,10.43
2022-12-11T10:11:56.905Z,10.13
2022-12-11T10:14:38.032Z,10.27
2022-12-11T10:17:12.458Z,10.90
2022-12-11T10:19:43.134Z,10.33
2022-12-11T10:22:19.656Z,10.13
2022-12-11T10:25:10.780Z,9.63
2022-12-11T10:27:41.238Z,10.10
2022-12-11T10:30:18.177Z,10.50
2022-12-11T10:32:52.606Z,10.23
2022-12-11T10:35:30.641Z,10.33
2022-12-11T10:38:06.452Z,9.90
2022-12-11T10:40:36.377Z,11.00
2022-12-11T10:43:04.549Z,11.87
2022-12-11T10:45:34.123Z,10.30
2022-12-11T10:48:07.105Z,10.37
2022-12-11T10:50:35.362Z,11.03
2022-12-11T10:53:03.534Z,10.60
2022-12-11T10:55:41.589Z,10.67
2022-12-11T10:58:18.749Z,10.90
2022-12-11T11:01:01.274Z,10.73
2022-12-11T11:03:30.252Z,10.83
2022-12-11T11:06:08.013Z,10.60
2022-12-11T11:08:44.814Z,10.30
2022-12-11T11:11:25.548Z,10.80
2022-12-11T11:14:04.894Z,10.00
2022-12-11T11:16:38.426Z,10.57
2022-12-11T11:19:07.035Z,9.67
2022-12-11T11:21:36.839Z,10.57
2022-12-11T11:24:05.807Z,10.50
2022-12-11T11:27:11.211Z,9.50
2022-12-11T11:29:29.278Z,10.43
2022-12-11T11:32:00.307Z,9.30
2022-12-11T11:34:30.917Z,9.87
2022-12-11T11:37:05.531Z,9.27
2022-12-11T11:39:38.755Z,10.03
2022-12-11T11:42:15.022Z,9.97
2022-12-11T11:44:48.635Z,8.87
2022-12-11T11:47:21.252Z,9.73
2022-12-11T11:49:56.736Z,10.00
2022-12-11T11:52:30.323Z,9.73
2022-12-11T11:55:10.069Z,10.17
2022-12-11T11:57:43.431Z,10.03
2022-12-11T12:00:20.748Z,9.50
2022-12-11T12:02:54.258Z,10.17
2022-12-11T12:05:27.623Z,10.13
2022-12-11T12:08:06.514Z,9.50
2022-12-11T12:10:45.453Z,9.87
2022-12-11T12:13:48.178Z,9.37
2022-12-11T12:16:44.061Z,10.07
2022-12-11T12:19:17.092Z,9.43
2022-12-11T12:21:50.243Z,10.27
2022-12-11T12:24:26.431Z,9.90
2022-12-11T12:27:01.403Z,9.87
2022-12-11T12:29:45.306Z,9.73
2022-12-11T12:32:21.651Z,8.93
2022-12-11T12:35:04.344Z,9.83
2022-12-11T12:37:47.385Z,9.20
2022-12-11T12:40:25.331Z,9.43
2022-12-11T12:43:05.432Z,9.57
2022-12-11T12:45:41.146Z,9.90
2022-12-11T12:48:10.427Z,12.70
2022-12-11T12:50:44.669Z,12.70
2022-12-11T12:53:17.908Z,10.53
2022-12-11T12:55:47.599Z,10.00
2022-12-11T12:58:28.024Z,9.60
2022-12-11T13:01:07.156Z,11.03
2022-12-11T13:03:38.520Z,9.93
2022-12-11T13:06:10.841Z,10.00
2022-12-11T13:08:41.924Z,10.90
2022-12-11T13:11:12.331Z,15.87
2022-12-11T13:13:43.572Z,10.23
2022-12-11T13:16:27.401Z,10.10
2022-12-11T13:18:55.937Z,11.57
2022-12-11T13:21:30.604Z,9.17
2022-12-11T13:24:18.793Z,9.67
2022-12-11T13:26:47.429Z,10.17
2022-12-11T13:29:33.219Z,8.97
2022-12-11T13:32:03.657Z,9.20
2022-12-11T13:34:36.165Z,10.30
2022-12-11T13:37:07.414Z,10.20
2022-12-11T13:39:38.713Z,10.17
2022-12-11T13:42:11.941Z,10.47
2022-12-11T13:44:48.336Z,9.47
2022-12-11T13:47:19.858Z,9.83
2022-12-11T13:49:54.078Z,9.60
2022-12-11T13:52:27.756Z,9.30
2022-12-11T13:54:59.223Z,9.73
2022-12-11T13:57:28.774Z,9.43
2022-12-11T13:59:59.520Z,9.67
2022-12-11T14:02:31.832Z,9.73
2022-12-11T14:05:03.233Z,10.10
2022-12-11T14:07:36.001Z,9.07
2022-12-11T14:10:09.546Z,9.90
2022-12-11T14:12:38.424Z,9.80
2022-12-11T14:15:07.563Z,9.53
2022-12-11T14:17:37.339Z,10.13
2022-12-11T14:20:08.593Z,10.67
2022-12-11T14:22:38.157Z,10.10
2022-12-11T14:25:21.724Z,10.00
2022-12-11T14:27:51.343Z,9.23
2022-12-11T14:30:24.289Z,13.80
2022-12-11T14:32:54.540Z,21.97
2022-12-11T14:35:28.044Z,12.83
2022-12-11T14:38:02.002Z,11.80
2022-12-11T14:40:36.776Z,9.47
2022-12-11T14:43:10.872Z,10.67
2022-12-11T14:45:41.495Z,10.10
2022-12-11T14:48:14.445Z,10.00
2022-12-11T14:50:47.406Z,9.93
2022-12-11T14:53:22.475Z,8.83
2022-12-11T14:55:52.949Z,9.53
2022-12-11T14:58:23.797Z,10.30
2022-12-11T15:01:01.609Z,9.33
2022-12-11T15:03:34.260Z,12.07
2022-12-11T15:06:04.475Z,11.80
2022-12-11T15:08:36.994Z,12.53
2022-12-11T15:11:08.638Z,12.83
2022-12-11T15:13:40.184Z,11.10
2022-12-11T15:16:10.168Z,10.27
2022-12-11T15:18:42.484Z,10.43
2022-12-11T15:21:13.685Z,42.57
2022-12-11T15:23:52.494Z,14.40
2022-12-11T15:26:21.711Z,11.20
2022-12-11T15:29:00.684Z,11.77
2022-12-11T15:31:30.999Z,9.67
2022-12-11T15:33:59.681Z,9.77
2022-12-11T15:36:32.466Z,9.90
2022-12-11T15:39:02.623Z,12.20
2022-12-11T15:41:33.256Z,11.07
2022-12-11T15:44:04.072Z,9.73
2022-12-11T15:46:36.736Z,9.37
2022-12-11T15:49:13.479Z,9.47
2022-12-11T15:51:43.397Z,10.53
2022-12-11T15:54:13.178Z,10.47
2022-12-11T15:56:41.553Z,9.77
2022-12-11T15:59:11.982Z,10.43
2022-12-11T16:01:40.159Z,10.77
2022-12-11T16:04:08.305Z,11.47
2022-12-11T16:06:36.439Z,10.40
2022-12-11T16:09:05.638Z,10.67
2022-12-11T16:11:35.113Z,10.77
2022-12-11T16:14:04.471Z,11.23
2022-12-11T16:16:33.023Z,11.73
2022-12-11T16:19:01.566Z,11.30
2022-12-11T16:21:29.756Z,10.90
2022-12-11T16:23:58.084Z,11.87
2022-12-11T16:26:26.214Z,12.20
2022-12-11T16:28:55.894Z,10.53
2022-12-11T16:31:24.157Z,10.70
2022-12-11T16:33:52.276Z,11.83
2022-12-11T16:36:21.569Z,11.23
2022-12-11T16:38:53.746Z,9.73
2022-12-11T16:41:22.893Z,11.20
2022-12-11T16:43:51.425Z,12.13
2022-12-11T16:46:21.718Z,12.50
2022-12-11T16:48:50.446Z,11.37
2022-12-11T16:51:19.029Z,11.90
2022-12-11T16:53:47.463Z,12.07
2022-12-11T16:56:15.582Z,11.90
2022-12-11T16:58:43.828Z,11.20
2022-12-11T17:01:13.767Z,12.13
2022-12-11T17:03:44.436Z,11.97
2022-12-11T17:06:14.852Z,12.07
2022-12-11T17:08:43.671Z,13.30
2022-12-11T17:11:16.143Z,11.77
2022-12-11T17:13:44.580Z,12.77
2022-12-11T17:16:14.953Z,10.87
2022-12-11T17:18:44.796Z,12.50
2022-12-11T17:21:15.417Z,11.17
2022-12-11T17:23:43.958Z,11.23
2022-12-11T17:26:12.727Z,12.27
2022-12-11T17:28:41.400Z,11.40
2022-12-11T17:31:12.374Z,11.90
2022-12-11T17:33:41.188Z,11.87
2022-12-11T17:36:15.792Z,12.73
2022-12-11T17:38:44.623Z,11.77
2022-12-11T17:41:20.076Z,12.87
2022-12-11T17:43:50.848Z,12.83
2022-12-11T17:46:19.518Z,13.43
2022-12-11T17:48:47.825Z,12.67
2022-12-11T17:51:23.717Z,13.73
2022-12-11T17:53:55.223Z,12.27
2022-12-11T17:56:23.840Z,12.30
2022-12-11T17:58:52.282Z,13.27
2022-12-11T18:01:20.723Z,13.87
2022-12-11T18:03:48.862Z,13.10
2022-12-11T18:06:18.633Z,14.53
2022-12-11T18:08:47.530Z,13.20
2022-12-11T18:11:17.515Z,14.23
2022-12-11T18:13:46.651Z,13.07
2022-12-11T18:16:17.759Z,13.60
2022-12-11T18:18:46.976Z,11.23
2022-12-11T18:21:16.798Z,13.20
2022-12-11T18:23:46.605Z,13.30
2022-12-11T18:26:15.467Z,12.87
2022-12-11T18:28:43.674Z,13.77
2022-12-11T18:31:13.448Z,13.60
2022-12-11T18:33:43.391Z,12.53
2022-12-11T18:36:14.265Z,13.00
2022-12-11T18:38:43.499Z,12.90
2022-12-11T18:41:16.765Z,12.40
2022-12-11T18:43:45.439Z,12.73
2022-12-11T18:46:16.511Z,13.90
2022-12-11T18:48:46.217Z,12.80
2022-12-11T18:51:17.473Z,13.43
2022-12-11T18:53:45.925Z,13.83
2022-12-11T18:56:18.697Z,12.87
2022-12-11T18:58:47.140Z,13.10
2022-12-11T19:01:19.742Z,12.50
2022-12-11T19:03:48.398Z,13.73
2022-12-11T19:06:19.049Z,13.00
2022-12-11T19:08:47.650Z,13.00
2022-12-11T19:11:18.148Z,11.90
2022-12-11T19:13:46.838Z,12.63
2022-12-11T19:16:19.211Z,11.80
2022-12-11T19:18:47.645Z,11.23
2022-12-11T19:21:17.705Z,12.53
2022-12-11T19:23:46.552Z,13.53
2022-12-11T19:26:17.893Z,13.17
2022-12-11T19:28:46.594Z,14.17
2022-12-11T19:31:17.769Z,14.83
2022-12-11T19:33:46.706Z,15.67
2022-12-11T19:36:16.854Z,14.13
2022-12-11T19:38:46.241Z,13.97
2022-12-11T19:41:16.707Z,14.03
2022-12-11T19:43:46.477Z,13.63
2022-12-11T19:46:15.814Z,15.37
2022-12-11T19:48:44.363Z,13.97
2022-12-11T19:51:15.079Z,13.83
2022-12-11T19:53:44.736Z,13.70
2022-12-11T19:56:13.422Z,14.73
2022-12-11T19:58:42.442Z,14.37
2022-12-11T20:01:18.409Z,14.07
2022-12-11T20:03:46.708Z,13.43
2022-12-11T20:06:15.715Z,13.73
2022-12-11T20:08:45.615Z,12.87
2022-12-11T20:11:18.246Z,14.27
2022-12-11T20:13:47.396Z,14.47
2022-12-11T20:16:19.998Z,13.60
2022-12-11T20:18:57.570Z,14.20
2022-12-11T20:21:27.222Z,13.50
2022-12-11T20:23:55.371Z,13.10
2022-12-11T20:26:25.244Z,13.87
2022-12-11T20:28:54.684Z,15.33
2022-12-11T20:31:26.031Z,14.30
2022-12-11T20:33:57.042Z,13.47
2022-12-11T20:36:26.643Z,14.83
2022-12-11T20:38:55.085Z,12.97
2022-12-11T20:41:24.995Z,14.27
2022-12-11T20:43:54.364Z,14.20
2022-12-11T20:46:26.291Z,14.20
2022-12-11T20:48:56.185Z,15.37
2022-12-11T20:51:26.283Z,14.93
2022-12-11T20:53:58.695Z,14.27
2022-12-11T20:56:29.406Z,14.80
2022-12-11T20:58:58.333Z,15.10
2022-12-11T21:01:32.655Z,16.87
2022-12-11T21:04:01.448Z,15.60
2022-12-11T21:06:31.670Z,14.37
2022-12-11T21:09:00.499Z,14.17
2022-12-11T21:11:28.929Z,14.63
2022-12-11T21:13:57.114Z,14.03
2022-12-11T21:16:26.966Z,14.67
2022-12-11T21:18:56.374Z,14.23
2022-12-11T21:21:24.943Z,14.87
2022-12-11T21:23:53.376Z,15.60
2022-12-11T21:26:21.927Z,15.37
2022-12-11T21:28:50.241Z,14.37
2022-12-11T21:31:20.481Z,15.13
2022-12-11T21:33:50.316Z,16.23
2022-12-11T21:36:18.889Z,14.90
2022-12-11T21:38:47.746Z,15.77
2022-12-11T21:41:18.685Z,15.03
2022-12-11T21:46:37.351Z,13.77
2022-12-11T21:49:08.260Z,14.73
2022-12-11T21:51:42.558Z,14.10
2022-12-11T21:54:15.505Z,16.23
2022-12-11T21:56:43.882Z,15.00
2022-12-11T21:59:12.218Z,14.67
2022-12-11T22:01:42.274Z,15.83
2022-12-11T22:04:12.907Z,15.80
2022-12-11T22:06:43.489Z,16.23
2022-12-11T22:09:13.201Z,16.27
2022-12-11T22:11:42.767Z,15.47
2022-12-11T22:14:13.573Z,15.53
2022-12-11T22:16:42.098Z,15.33
2022-12-11T22:19:12.083Z,14.93
2022-12-11T22:21:40.516Z,16.70
2022-12-11T22:24:09.425Z,17.17
2022-12-11T22:26:37.576Z,16.23
2022-12-11T22:29:05.658Z,15.53
2022-12-11T22:31:33.931Z,16.03
2022-12-11T22:34:02.052Z,15.60
2022-12-11T22:36:31.920Z,18.20
2022-12-11T22:39:01.933Z,16.53
2022-12-11T22:41:32.377Z,19.40
2022-12-11T22:44:01.049Z,16.60
2022-12-11T22:46:31.456Z,16.33
2022-12-11T22:49:00.219Z,16.13
2022-12-11T22:51:28.334Z,22.60
2022-12-11T22:53:58.981Z,18.20
2022-12-11T22:56:27.106Z,19.30
2022-12-11T22:58:55.215Z,18.77
2022-12-11T23:01:25.167Z,17.87
2022-12-11T23:03:54.132Z,17.73
2022-12-11T23:06:25.889Z,18.73
2022-12-11T23:08:55.210Z,17.90
2022-12-11T23:11:27.094Z,19.43
2022-12-11T23:13:56.266Z,19.13
2022-12-11T23:16:26.144Z,16.43
2022-12-11T23:18:55.172Z,15.97
2022-12-11T23:21:25.145Z,14.47
2022-12-11T23:23:53.639Z,14.47
2022-12-11T23:26:22.707Z,16.67
2022-12-11T23:28:52.701Z,16.10
2022-12-11T23:31:21.111Z,15.57
2022-12-11T23:33:49.411Z,14.47
2022-12-11T23:36:17.703Z,17.17
2022-12-11T23:38:50.972Z,15.43
2022-12-11T23:41:23.158Z,15.20
2022-12-11T23:43:52.904Z,15.63
2022-12-11T23:46:24.083Z,16.00
2022-12-11T23:48:52.886Z,15.57
2022-12-11T23:51:22.839Z,14.57
2022-12-11T23:53:51.309Z,14.57
2022-12-11T23:56:21.448Z,15.77
2022-12-11T23:58:49.622Z,15.13
